createdAt,value
2019-03-23T00:01:25.264Z,5.60
2019-03-23T00:03:53.090Z,5.60
2019-03-23T00:06:30.482Z,5.60
2019-03-23T00:08:50.747Z,5.60
2019-03-23T00:11:18.643Z,5.60
2019-03-23T00:13:46.563Z,5.60
2019-03-23T00:16:14.563Z,5.50
2019-03-23T00:18:42.314Z,5.50
2019-03-23T00:21:10.226Z,5.50
2019-03-23T00:23:39.102Z,5.40
2019-03-23T00:26:07.133Z,5.40
2019-03-23T00:28:34.967Z,5.40
2019-03-23T00:31:03.819Z,5.30
2019-03-23T00:33:31.684Z,5.30
2019-03-23T00:35:59.673Z,5.30
2019-03-23T00:38:27.646Z,5.20
2019-03-23T00:40:55.551Z,5.20
2019-03-23T00:43:23.505Z,5.20
2019-03-23T00:45:51.506Z,5.10
2019-03-23T00:48:19.372Z,5.10
2019-03-23T00:50:47.586Z,5.00
2019-03-23T00:53:15.443Z,5.00
2019-03-23T00:55:43.563Z,5.00
2019-03-23T00:58:11.539Z,5.00
2019-03-23T01:00:39.629Z,5.00
2019-03-23T01:03:07.676Z,4.90
2019-03-23T01:05:35.528Z,4.90
2019-03-23T01:08:03.778Z,4.90
2019-03-23T01:10:31.623Z,4.90
2019-03-23T01:12:59.525Z,4.90
2019-03-23T01:15:27.460Z,4.80
2019-03-23T01:17:56.572Z,4.80
2019-03-23T01:20:24.838Z,4.70
2019-03-23T01:22:53.223Z,4.70
2019-03-23T01:25:21.095Z,4.70
2019-03-23T01:27:48.904Z,4.70
2019-03-23T01:30:16.938Z,4.70
2019-03-23T01:32:44.865Z,4.60
2019-03-23T01:35:12.961Z,4.60
2019-03-23T01:37:40.557Z,4.60
2019-03-23T01:40:08.449Z,4.60
2019-03-23T01:42:36.409Z,4.50
2019-03-23T01:45:06.709Z,4.50
2019-03-23T01:47:34.774Z,4.50
2019-03-23T01:50:02.810Z,4.50
2019-03-23T01:52:31.101Z,4.50
2019-03-23T01:54:59.276Z,4.50
2019-03-23T01:57:27.317Z,4.40
2019-03-23T01:59:55.240Z,4.40
2019-03-23T02:02:22.966Z,4.50
2019-03-23T02:04:51.078Z,4.40
2019-03-23T02:07:19.103Z,4.50
2019-03-23T02:09:47.196Z,4.50
2019-03-23T02:12:15.553Z,4.40
2019-03-23T02:14:43.137Z,4.40
2019-03-23T02:17:11.490Z,4.40
2019-03-23T02:19:39.425Z,4.30
2019-03-23T02:22:07.471Z,4.40
2019-03-23T02:24:35.439Z,4.40
2019-03-23T02:27:03.308Z,4.40
2019-03-23T02:29:31.020Z,4.30
2019-03-23T02:32:00.135Z,4.30
2019-03-23T02:34:28.241Z,4.20
2019-03-23T02:36:55.962Z,4.20
2019-03-23T02:39:23.885Z,4.20
2019-03-23T02:41:51.666Z,4.20
2019-03-23T02:44:19.412Z,4.10
2019-03-23T02:46:47.594Z,4.10
2019-03-23T02:49:24.887Z,4.00
2019-03-23T02:51:53.059Z,4.00
2019-03-23T02:54:20.965Z,4.00
2019-03-23T02:56:48.870Z,3.90
2019-03-23T02:59:16.817Z,3.90
2019-03-23T03:01:44.829Z,3.90
2019-03-23T03:04:13.987Z,3.80
2019-03-23T03:06:41.854Z,3.80
2019-03-23T03:09:10.193Z,3.80
2019-03-23T03:11:38.078Z,3.80
2019-03-23T03:14:05.984Z,3.70
2019-03-23T03:16:33.909Z,3.70
2019-03-23T03:19:01.937Z,3.70
2019-03-23T03:21:30.276Z,3.70
2019-03-23T03:23:58.415Z,3.60
2019-03-23T03:26:26.325Z,3.70
2019-03-23T03:28:54.339Z,3.60
2019-03-23T03:31:22.204Z,3.60
2019-03-23T03:33:49.986Z,3.50
2019-03-23T03:36:17.980Z,3.50
2019-03-23T03:38:46.088Z,3.50
2019-03-23T03:41:14.044Z,3.50
2019-03-23T03:43:41.804Z,3.50
2019-03-23T03:46:10.279Z,3.40
2019-03-23T03:48:38.340Z,3.40
2019-03-23T03:51:06.309Z,3.40
2019-03-23T03:53:34.091Z,3.40
2019-03-23T03:56:02.154Z,3.30
2019-03-23T03:58:30.151Z,3.30
2019-03-23T04:00:58.488Z,3.30
2019-03-23T04:03:26.488Z,3.30
2019-03-23T04:05:54.613Z,3.30
2019-03-23T04:08:22.520Z,3.30
2019-03-23T04:10:50.423Z,3.30
2019-03-23T04:13:18.427Z,3.20
2019-03-23T04:15:46.547Z,3.20
2019-03-23T04:18:14.344Z,3.20
2019-03-23T04:20:42.245Z,3.20
2019-03-23T04:23:10.210Z,3.20
2019-03-23T04:25:38.228Z,3.20
2019-03-23T04:28:06.342Z,3.20
2019-03-23T04:30:34.155Z,3.10
2019-03-23T04:33:02.158Z,3.10
2019-03-23T04:35:30.327Z,3.10
2019-03-23T04:37:58.253Z,3.10
2019-03-23T04:40:26.058Z,3.10
2019-03-23T04:42:53.935Z,3.10
2019-03-23T04:45:21.776Z,3.10
2019-03-23T04:47:49.699Z,3.00
2019-03-23T04:50:17.701Z,3.10
2019-03-23T04:52:45.759Z,3.00
2019-03-23T04:55:13.616Z,3.10
2019-03-23T04:57:41.518Z,3.00
2019-03-23T05:00:10.697Z,3.00
2019-03-23T05:02:38.727Z,3.00
2019-03-23T05:05:07.483Z,3.00
2019-03-23T05:07:35.540Z,2.90
2019-03-23T05:10:05.342Z,3.00
2019-03-23T05:12:33.565Z,3.00
2019-03-23T05:15:01.564Z,2.90
2019-03-23T05:17:29.573Z,2.90
2019-03-23T05:19:57.506Z,2.90
2019-03-23T05:22:25.576Z,2.90
2019-03-23T05:25:15.926Z,2.90
2019-03-23T05:27:45.498Z,2.90
2019-03-23T05:30:13.452Z,2.90
2019-03-23T05:32:41.455Z,2.90
2019-03-23T05:35:09.416Z,2.80
2019-03-23T05:37:37.865Z,2.80
2019-03-23T05:40:05.815Z,2.90
2019-03-23T05:42:34.249Z,2.90
2019-03-23T05:45:02.336Z,2.90
2019-03-23T05:47:30.367Z,2.90
2019-03-23T05:50:00.622Z,3.00
2019-03-23T05:52:28.442Z,3.00
2019-03-23T05:54:56.739Z,3.00
2019-03-23T05:57:25.297Z,3.00
2019-03-23T05:59:53.172Z,3.00
2019-03-23T06:02:21.182Z,3.10
2019-03-23T06:04:48.811Z,3.10
2019-03-23T06:07:17.871Z,3.10
2019-03-23T06:09:46.108Z,3.20
2019-03-23T06:12:14.092Z,3.20
2019-03-23T06:14:42.291Z,3.30
2019-03-23T06:17:10.845Z,3.30
2019-03-23T06:19:38.720Z,3.30
2019-03-23T06:22:06.939Z,3.40
2019-03-23T06:24:35.011Z,3.50
2019-03-23T06:27:03.019Z,3.50
2019-03-23T06:29:31.733Z,3.60
2019-03-23T06:31:59.654Z,3.70
2019-03-23T06:34:27.936Z,3.80
2019-03-23T06:36:57.293Z,3.90
2019-03-23T06:39:25.368Z,3.90
2019-03-23T06:41:53.790Z,4.00
2019-03-23T06:44:24.129Z,4.10
2019-03-23T06:46:52.731Z,4.20
2019-03-23T06:49:20.853Z,4.30
2019-03-23T06:51:48.732Z,4.30
2019-03-23T06:54:16.646Z,4.50
2019-03-23T06:56:44.471Z,4.50
2019-03-23T06:59:12.355Z,4.60
2019-03-23T07:01:40.253Z,4.70
2019-03-23T07:04:08.892Z,4.80
2019-03-23T07:06:36.948Z,4.90
2019-03-23T07:09:15.773Z,5.00
2019-03-23T07:11:36.278Z,5.10
2019-03-23T07:14:04.824Z,5.20
2019-03-23T07:16:33.002Z,5.30
2019-03-23T07:19:01.430Z,5.40
2019-03-23T07:21:29.266Z,5.50
2019-03-23T07:23:57.654Z,5.60
2019-03-23T07:26:25.979Z,5.70
2019-03-23T07:28:54.139Z,5.90
2019-03-23T07:31:22.239Z,6.00
2019-03-23T07:33:50.393Z,6.10
2019-03-23T07:36:18.882Z,6.20
2019-03-23T07:38:47.951Z,6.30
2019-03-23T07:41:16.095Z,6.40
2019-03-23T07:43:45.027Z,6.50
2019-03-23T07:46:13.097Z,6.60
2019-03-23T07:48:41.415Z,6.80
2019-03-23T07:51:09.458Z,6.90
2019-03-23T07:53:37.469Z,7.00
2019-03-23T07:56:07.111Z,7.10
2019-03-23T07:58:36.597Z,7.20
2019-03-23T08:01:06.751Z,7.30
2019-03-23T08:03:34.804Z,7.40
2019-03-23T08:06:02.854Z,7.50
2019-03-23T08:08:30.870Z,7.60
2019-03-23T08:10:58.633Z,7.70
2019-03-23T08:13:26.604Z,7.80
2019-03-23T08:15:56.013Z,7.90
2019-03-23T08:18:24.239Z,7.90
2019-03-23T08:20:52.355Z,8.10
2019-03-23T08:23:20.284Z,8.10
2019-03-23T08:25:48.473Z,8.30
2019-03-23T08:28:16.488Z,8.30
2019-03-23T08:30:44.887Z,8.40
2019-03-23T08:33:15.533Z,8.50
2019-03-23T08:35:43.462Z,8.70
2019-03-23T08:38:11.318Z,8.80
2019-03-23T08:40:38.922Z,8.90
2019-03-23T08:43:06.774Z,9.00
2019-03-23T08:45:34.651Z,9.20
2019-03-23T08:48:02.993Z,9.20
2019-03-23T08:50:31.021Z,9.40
2019-03-23T08:52:59.067Z,9.50
2019-03-23T08:55:26.904Z,9.60
2019-03-23T08:57:54.890Z,9.70
2019-03-23T09:00:22.896Z,9.80
2019-03-23T09:02:50.899Z,10.00
2019-03-23T09:05:18.805Z,10.10
2019-03-23T09:07:46.863Z,10.20
2019-03-23T09:10:14.852Z,10.30
2019-03-23T09:12:42.919Z,10.50
2019-03-23T09:15:10.959Z,10.50
2019-03-23T09:17:38.939Z,10.70
2019-03-23T09:20:07.731Z,10.70
2019-03-23T09:22:35.435Z,10.80
2019-03-23T09:25:04.040Z,10.90
2019-03-23T09:27:31.999Z,10.90
2019-03-23T09:30:00.166Z,11.10
2019-03-23T09:32:28.343Z,11.20
2019-03-23T09:34:57.431Z,11.30
2019-03-23T09:37:25.430Z,11.30
2019-03-23T09:39:53.308Z,11.40
2019-03-23T09:42:21.297Z,11.50
2019-03-23T09:44:49.305Z,11.60
2019-03-23T09:47:17.289Z,11.70
2019-03-23T09:49:45.156Z,11.70
2019-03-23T09:52:13.128Z,11.70
2019-03-23T09:54:41.352Z,11.70
2019-03-23T09:57:09.369Z,11.90
2019-03-23T09:59:37.322Z,12.00
2019-03-23T10:02:05.725Z,12.10
2019-03-23T10:04:34.081Z,12.20
2019-03-23T10:07:02.042Z,12.30
2019-03-23T10:09:30.457Z,12.30
2019-03-23T10:11:59.294Z,12.30
2019-03-23T10:14:27.390Z,12.30
2019-03-23T10:16:55.333Z,12.30
2019-03-23T10:19:23.347Z,12.40
2019-03-23T10:21:51.411Z,12.40
2019-03-23T10:24:19.547Z,12.60
2019-03-23T10:26:47.495Z,12.70
2019-03-23T10:29:16.489Z,12.70
2019-03-23T10:31:44.465Z,12.70
2019-03-23T10:34:12.308Z,12.70
2019-03-23T10:36:40.443Z,12.80
2019-03-23T10:39:08.308Z,12.80
2019-03-23T10:41:36.325Z,12.90
2019-03-23T10:44:04.191Z,12.90
2019-03-23T10:46:32.063Z,12.90
2019-03-23T10:49:00.035Z,13.00
2019-03-23T10:51:27.937Z,13.10
2019-03-23T10:53:55.790Z,13.10
2019-03-23T10:56:24.071Z,13.30
2019-03-23T10:58:52.025Z,13.20
2019-03-23T11:01:20.354Z,13.20
2019-03-23T11:03:48.310Z,13.20
2019-03-23T11:06:16.213Z,13.30
2019-03-23T11:08:44.867Z,13.40
2019-03-23T11:11:12.761Z,13.30
2019-03-23T11:13:40.936Z,13.30
2019-03-23T11:16:08.904Z,13.30
2019-03-23T11:18:37.802Z,13.40
2019-03-23T11:21:07.134Z,13.50
2019-03-23T11:23:35.128Z,13.50
2019-03-23T11:26:02.989Z,13.50
2019-03-23T11:28:30.846Z,13.60
2019-03-23T11:30:58.820Z,13.60
2019-03-23T11:33:26.819Z,13.60
2019-03-23T11:35:57.982Z,13.70
2019-03-23T11:38:24.778Z,13.60
2019-03-23T11:40:55.170Z,13.70
2019-03-23T11:43:22.481Z,13.90
2019-03-23T11:45:50.632Z,13.80
2019-03-23T11:48:18.635Z,13.70
2019-03-23T11:50:46.428Z,13.80
2019-03-23T11:53:14.295Z,13.90
2019-03-23T11:55:42.493Z,13.90
2019-03-23T11:58:10.996Z,14.00
2019-03-23T12:00:38.962Z,14.00
2019-03-23T12:03:06.860Z,14.00
2019-03-23T12:05:34.834Z,14.10
2019-03-23T12:08:02.664Z,14.00
2019-03-23T12:10:30.556Z,14.10
2019-03-23T12:12:58.558Z,14.20
2019-03-23T12:15:29.809Z,14.20
2019-03-23T12:17:57.395Z,14.20
2019-03-23T12:20:25.317Z,14.30
2019-03-23T12:22:53.180Z,14.30
2019-03-23T12:25:21.204Z,14.40
2019-03-23T12:27:49.204Z,14.40
2019-03-23T12:30:17.664Z,14.40
2019-03-23T12:32:45.379Z,14.30
2019-03-23T12:35:13.533Z,14.40
2019-03-23T12:37:41.662Z,14.50
2019-03-23T12:40:11.005Z,14.60
2019-03-23T12:42:39.074Z,14.60
2019-03-23T12:45:07.324Z,14.60
2019-03-23T12:47:35.386Z,14.60
2019-03-23T12:50:03.905Z,14.50
2019-03-23T12:52:32.081Z,14.50
2019-03-23T12:55:00.263Z,14.50
2019-03-23T12:57:28.386Z,14.60
2019-03-23T12:59:56.356Z,14.70
2019-03-23T13:02:24.733Z,14.50
2019-03-23T13:04:53.065Z,14.70
2019-03-23T13:07:21.084Z,14.70
2019-03-23T13:09:49.127Z,14.70
2019-03-23T13:12:16.850Z,14.70
2019-03-23T13:14:44.783Z,14.80
2019-03-23T13:17:12.705Z,14.80
2019-03-23T13:19:40.706Z,14.80
2019-03-23T13:22:08.571Z,14.80
2019-03-23T13:24:36.588Z,14.80
2019-03-23T13:27:04.606Z,14.90
2019-03-23T13:29:32.656Z,14.80
2019-03-23T13:32:00.663Z,14.80
2019-03-23T13:34:28.848Z,14.70
2019-03-23T13:36:57.743Z,14.80
2019-03-23T13:39:25.585Z,14.80
2019-03-23T13:41:54.984Z,14.90
2019-03-23T13:44:22.813Z,14.90
2019-03-23T13:46:50.839Z,14.90
2019-03-23T13:49:19.232Z,14.90
2019-03-23T13:51:47.159Z,14.90
2019-03-23T13:54:15.170Z,14.90
2019-03-23T13:56:43.239Z,14.90
2019-03-23T13:59:11.024Z,15.00
2019-03-23T14:01:39.025Z,15.00
2019-03-23T14:04:07.096Z,15.00
2019-03-23T14:06:35.108Z,15.00
2019-03-23T14:09:06.182Z,15.00
2019-03-23T14:11:34.206Z,15.00
2019-03-23T14:14:02.114Z,15.00
2019-03-23T14:16:30.107Z,15.00
2019-03-23T14:18:58.091Z,15.00
2019-03-23T14:21:26.679Z,15.00
2019-03-23T14:23:55.255Z,15.10
2019-03-23T14:26:23.239Z,15.00
2019-03-23T14:28:51.496Z,15.00
2019-03-23T14:31:19.598Z,15.00
2019-03-23T14:33:47.603Z,15.00
2019-03-23T14:36:15.466Z,15.00
2019-03-23T14:38:43.448Z,15.00
2019-03-23T14:41:11.491Z,15.00
2019-03-23T14:43:39.526Z,15.00
2019-03-23T14:46:07.391Z,15.00
2019-03-23T14:48:35.403Z,15.00
2019-03-23T14:51:03.571Z,15.00
2019-03-23T14:53:31.804Z,15.00
2019-03-23T14:55:59.694Z,15.00
2019-03-23T14:58:27.804Z,15.00
2019-03-23T15:00:55.675Z,15.00
2019-03-23T15:03:23.663Z,15.00
2019-03-23T15:05:51.514Z,15.00
2019-03-23T15:08:19.524Z,15.00
2019-03-23T15:10:47.825Z,15.00
2019-03-23T15:13:15.811Z,15.10
2019-03-23T15:15:43.765Z,15.10
2019-03-23T15:18:11.920Z,15.00
2019-03-23T15:20:39.787Z,15.00
2019-03-23T15:23:07.805Z,15.10
2019-03-23T15:25:35.602Z,15.10
2019-03-23T15:28:03.493Z,15.00
2019-03-23T15:30:31.521Z,15.00
2019-03-23T15:32:59.837Z,15.00
2019-03-23T15:35:27.906Z,15.00
2019-03-23T15:37:55.919Z,15.00
2019-03-23T15:40:23.977Z,15.00
2019-03-23T15:42:52.101Z,15.00
2019-03-23T15:45:19.962Z,14.90
2019-03-23T15:47:48.370Z,15.00
2019-03-23T15:50:16.267Z,15.00
2019-03-23T15:52:44.115Z,14.90
2019-03-23T15:55:12.132Z,14.90
2019-03-23T15:57:40.420Z,14.90
2019-03-23T16:00:10.765Z,14.90
2019-03-23T16:02:38.490Z,14.90
2019-03-23T16:05:06.860Z,14.90
2019-03-23T16:07:35.866Z,14.80
2019-03-23T16:10:05.815Z,14.80
2019-03-23T16:12:35.301Z,14.80
2019-03-23T16:15:05.499Z,14.80
2019-03-23T16:17:33.433Z,14.80
2019-03-23T16:20:01.472Z,14.80
2019-03-23T16:22:29.514Z,14.70
2019-03-23T16:24:57.461Z,14.70
2019-03-23T16:27:25.588Z,14.70
2019-03-23T16:29:53.475Z,14.70
2019-03-23T16:32:21.596Z,14.70
2019-03-23T16:34:49.963Z,14.60
2019-03-23T16:37:17.822Z,14.60
2019-03-23T16:39:45.730Z,14.60
2019-03-23T16:42:13.627Z,14.50
2019-03-23T16:44:41.664Z,14.50
2019-03-23T16:47:09.605Z,14.50
2019-03-23T16:49:37.789Z,14.50
2019-03-23T16:52:05.912Z,14.40
2019-03-23T16:54:33.905Z,14.40
2019-03-23T16:57:01.914Z,14.40
2019-03-23T16:59:30.010Z,14.40
2019-03-23T17:01:57.993Z,14.30
2019-03-23T17:04:26.997Z,14.20
2019-03-23T17:06:55.025Z,14.20
2019-03-23T17:09:23.517Z,14.20
2019-03-23T17:11:52.777Z,14.20
2019-03-23T17:14:21.391Z,14.20
2019-03-23T17:16:49.324Z,14.10
2019-03-23T17:19:17.639Z,14.10
2019-03-23T17:21:45.664Z,14.00
2019-03-23T17:24:13.534Z,13.90
2019-03-23T17:26:41.537Z,13.90
2019-03-23T17:29:09.644Z,13.90
2019-03-23T17:31:37.561Z,13.80
2019-03-23T17:34:05.609Z,13.80
2019-03-23T17:36:33.617Z,13.80
2019-03-23T17:39:02.053Z,13.70
2019-03-23T17:41:32.060Z,13.60
2019-03-23T17:44:00.217Z,13.60
2019-03-23T17:46:28.382Z,13.50
2019-03-23T17:48:56.334Z,13.50
2019-03-23T17:51:24.216Z,13.40
2019-03-23T17:53:58.606Z,13.40
2019-03-23T17:56:22.454Z,13.30
2019-03-23T17:58:50.445Z,13.30
2019-03-23T18:01:19.575Z,13.20
2019-03-23T18:03:48.017Z,13.20
2019-03-23T18:06:16.337Z,13.20
2019-03-23T18:08:44.346Z,13.10
2019-03-23T18:11:12.325Z,13.00
2019-03-23T18:13:40.372Z,12.90
2019-03-23T18:16:08.144Z,12.90
2019-03-23T18:18:36.336Z,12.80
2019-03-23T18:21:04.794Z,12.80
2019-03-23T18:23:32.674Z,12.80
2019-03-23T18:26:00.691Z,12.80
2019-03-23T18:28:28.769Z,12.70
2019-03-23T18:30:56.787Z,12.70
2019-03-23T18:33:24.638Z,12.60
2019-03-23T18:35:52.634Z,12.60
2019-03-23T18:38:21.193Z,12.50
2019-03-23T18:40:49.680Z,12.50
2019-03-23T18:43:26.998Z,12.40
2019-03-23T18:45:47.399Z,12.40
2019-03-23T18:48:15.279Z,12.30
2019-03-23T18:50:43.388Z,12.20
2019-03-23T18:53:11.451Z,12.10
2019-03-23T18:55:39.180Z,12.00
2019-03-23T18:58:07.441Z,11.90
2019-03-23T19:00:37.876Z,11.80
2019-03-23T19:03:06.139Z,11.70
2019-03-23T19:05:34.497Z,11.60
2019-03-23T19:08:02.676Z,11.60
2019-03-23T19:10:30.613Z,11.50
2019-03-23T19:12:58.767Z,11.40
2019-03-23T19:15:27.258Z,11.30
2019-03-23T19:17:55.334Z,11.30
2019-03-23T19:20:23.706Z,11.20
2019-03-23T19:22:51.533Z,11.10
2019-03-23T19:25:19.580Z,11.10
2019-03-23T19:27:49.296Z,11.00
2019-03-23T19:30:18.916Z,10.90
2019-03-23T19:32:46.938Z,10.80
2019-03-23T19:35:15.883Z,10.80
2019-03-23T19:37:43.976Z,10.70
2019-03-23T19:40:12.315Z,10.60
2019-03-23T19:42:40.189Z,10.60
2019-03-23T19:45:08.533Z,10.50
2019-03-23T19:47:36.418Z,10.40
2019-03-23T19:50:05.161Z,10.40
2019-03-23T19:52:33.629Z,10.30
2019-03-23T19:55:01.732Z,10.30
2019-03-23T19:57:29.902Z,10.30
2019-03-23T19:59:57.888Z,10.20
2019-03-23T20:02:26.201Z,10.10
2019-03-23T20:04:55.130Z,10.10
2019-03-23T20:07:32.715Z,10.00
2019-03-23T20:09:53.237Z,9.90
2019-03-23T20:12:21.265Z,9.90
2019-03-23T20:14:49.367Z,9.90
2019-03-23T20:17:17.320Z,9.80
2019-03-23T20:19:45.269Z,9.70
2019-03-23T20:22:12.954Z,9.70
2019-03-23T20:24:40.809Z,9.60
2019-03-23T20:27:08.651Z,9.60
2019-03-23T20:29:36.899Z,9.50
2019-03-23T20:32:05.954Z,9.50
2019-03-23T20:34:33.986Z,9.40
2019-03-23T20:37:01.871Z,9.40
2019-03-23T20:39:29.942Z,9.30
2019-03-23T20:41:57.997Z,9.20
2019-03-23T20:44:25.965Z,9.20
2019-03-23T20:46:54.930Z,9.20
2019-03-23T20:49:23.438Z,9.10
2019-03-23T20:51:54.194Z,9.00
2019-03-23T20:54:23.065Z,9.00
2019-03-23T20:56:51.158Z,9.00
2019-03-23T20:59:18.881Z,8.90
2019-03-23T21:01:46.941Z,8.80
2019-03-23T21:04:15.025Z,8.80
2019-03-23T21:06:44.059Z,8.70
2019-03-23T21:09:12.077Z,8.70
2019-03-23T21:11:40.160Z,8.60
2019-03-23T21:14:08.489Z,8.60
2019-03-23T21:16:36.358Z,8.50
2019-03-23T21:19:04.650Z,8.50
2019-03-23T21:21:33.492Z,8.40
2019-03-23T21:24:02.035Z,8.40
2019-03-23T21:26:30.159Z,8.40
2019-03-23T21:28:58.599Z,8.30
2019-03-23T21:31:26.900Z,8.30
2019-03-23T21:33:55.500Z,8.20
2019-03-23T21:36:24.322Z,8.20
2019-03-23T21:38:52.991Z,8.20
2019-03-23T21:41:20.998Z,8.10
2019-03-23T21:43:48.827Z,8.10
2019-03-23T21:46:17.811Z,8.00
2019-03-23T21:48:45.882Z,8.00
2019-03-23T21:51:13.916Z,8.00
2019-03-23T21:53:41.896Z,7.90
2019-03-23T21:56:09.796Z,7.90
2019-03-23T21:58:37.545Z,7.80
2019-03-23T22:01:06.130Z,7.80
2019-03-23T22:03:34.575Z,7.80
2019-03-23T22:06:02.558Z,7.80
2019-03-23T22:08:30.424Z,7.70
2019-03-23T22:10:58.429Z,7.70
2019-03-23T22:13:26.373Z,7.60
2019-03-23T22:15:54.423Z,7.60
2019-03-23T22:18:22.178Z,7.60
2019-03-23T22:20:50.365Z,7.60
2019-03-23T22:23:18.230Z,7.50
2019-03-23T22:25:46.143Z,7.50
2019-03-23T22:28:14.041Z,7.40
2019-03-23T22:30:42.025Z,7.40
2019-03-23T22:33:10.025Z,7.40
2019-03-23T22:35:37.957Z,7.30
2019-03-23T22:38:07.794Z,7.30
2019-03-23T22:40:35.766Z,7.30
2019-03-23T22:43:03.673Z,7.20
2019-03-23T22:45:31.883Z,7.20
2019-03-23T22:47:59.759Z,7.20
2019-03-23T22:50:28.070Z,7.20
2019-03-23T22:52:57.166Z,7.10
2019-03-23T22:55:25.036Z,7.10
2019-03-23T22:57:53.066Z,7.00
2019-03-23T23:00:41.490Z,7.00
2019-03-23T23:03:11.226Z,7.00
2019-03-23T23:05:39.250Z,7.00
2019-03-23T23:08:07.297Z,6.90
2019-03-23T23:10:37.076Z,6.90
2019-03-23T23:13:05.101Z,6.90
2019-03-23T23:15:33.539Z,6.90
2019-03-23T23:18:02.618Z,6.80
2019-03-23T23:20:30.685Z,6.80
2019-03-23T23:22:58.708Z,6.70
2019-03-23T23:25:26.687Z,6.70
2019-03-23T23:27:54.406Z,6.70
2019-03-23T23:30:22.329Z,6.60
2019-03-23T23:32:50.306Z,6.60
2019-03-23T23:35:18.331Z,6.60
2019-03-23T23:37:47.163Z,6.60
2019-03-23T23:40:15.309Z,6.60
2019-03-23T23:42:43.118Z,6.60
2019-03-23T23:45:15.778Z,6.50
2019-03-23T23:47:40.967Z,6.50
2019-03-23T23:50:09.160Z,6.50
2019-03-23T23:52:37.387Z,6.50
2019-03-23T23:55:05.572Z,6.50
2019-03-23T23:57:33.572Z,6.40
